sensor_id;sensor_type;location;lat;lon;timestamp;temperature;humidity
17252;DHT22;8742;51.716;8.790;2023-12-20T00:00:24;7.50;99.90
17252;DHT22;8742;51.716;8.790;2023-12-20T00:02:51;7.50;99.90
17252;DHT22;8742;51.716;8.790;2023-12-20T00:05:18;7.50;99.90
17252;DHT22;8742;51.716;8.790;2023-12-20T00:07:52;7.50;99.90
17252;DHT22;8742;51.716;8.790;2023-12-20T00:10:21;7.50;99.90
17252;DHT22;8742;51.716;8.790;2023-12-20T00:12:48;7.40;99.90
17252;DHT22;8742;51.716;8.790;2023-12-20T00:15:14;7.50;99.90
17252;DHT22;8742;51.716;8.790;2023-12-20T00:17:41;7.40;99.90
17252;DHT22;8742;51.716;8.790;2023-12-20T00:20:10;7.40;99.90
17252;DHT22;8742;51.716;8.790;2023-12-20T00:22:40;7.40;99.90
17252;DHT22;8742;51.716;8.790;2023-12-20T00:25:07;7.40;99.90
17252;DHT22;8742;51.716;8.790;2023-12-20T00:27:35;7.30;99.90
17252;DHT22;8742;51.716;8.790;2023-12-20T00:30:03;7.30;99.90
17252;DHT22;8742;51.716;8.790;2023-12-20T00:32:41;7.20;99.90
17252;DHT22;8742;51.716;8.790;2023-12-20T00:35:11;7.20;99.90
17252;DHT22;8742;51.716;8.790;2023-12-20T00:37:38;7.20;99.90
17252;DHT22;8742;51.716;8.790;2023-12-20T00:40:06;7.20;99.90
17252;DHT22;8742;51.716;8.790;2023-12-20T00:42:34;7.20;99.90
17252;DHT22;8742;51.716;8.790;2023-12-20T00:45:02;7.10;99.90
17252;DHT22;8742;51.716;8.790;2023-12-20T00:47:30;7.10;99.90
17252;DHT22;8742;51.716;8.790;2023-12-20T00:49:57;7.10;99.90
17252;DHT22;8742;51.716;8.790;2023-12-20T00:52:24;7.00;99.90
17252;DHT22;8742;51.716;8.790;2023-12-20T00:54:51;7.00;99.90
17252;DHT22;8742;51.716;8.790;2023-12-20T00:57:32;7.00;99.90
17252;DHT22;8742;51.716;8.790;2023-12-20T01:00:09;7.00;99.90
17252;DHT22;8742;51.716;8.790;2023-12-20T01:02:36;6.90;99.90
17252;DHT22;8742;51.716;8.790;2023-12-20T01:05:02;6.80;99.90
17252;DHT22;8742;51.716;8.790;2023-12-20T01:07:29;6.80;99.90
17252;DHT22;8742;51.716;8.790;2023-12-20T01:09:56;6.80;99.90
17252;DHT22;8742;51.716;8.790;2023-12-20T01:12:22;6.80;99.90
17252;DHT22;8742;51.716;8.790;2023-12-20T01:14:49;6.70;99.90
17252;DHT22;8742;51.716;8.790;2023-12-20T01:17:32;6.70;99.90
17252;DHT22;8742;51.716;8.790;2023-12-20T01:19:59;6.70;99.90
17252;DHT22;8742;51.716;8.790;2023-12-20T01:22:26;6.70;99.90
17252;DHT22;8742;51.716;8.790;2023-12-20T01:24:53;6.60;99.90
17252;DHT22;8742;51.716;8.790;2023-12-20T01:27:20;6.60;99.90
17252;DHT22;8742;51.716;8.790;2023-12-20T01:29:47;6.50;99.90
17252;DHT22;8742;51.716;8.790;2023-12-20T01:32:14;6.50;99.90
17252;DHT22;8742;51.716;8.790;2023-12-20T01:34:42;6.50;99.90
17252;DHT22;8742;51.716;8.790;2023-12-20T01:37:09;6.40;99.90
17252;DHT22;8742;51.716;8.790;2023-12-20T01:39:39;6.40;99.90
17252;DHT22;8742;51.716;8.790;2023-12-20T01:42:06;6.40;99.90
17252;DHT22;8742;51.716;8.790;2023-12-20T01:44:45;6.30;99.90
17252;DHT22;8742;51.716;8.790;2023-12-20T01:47:13;6.30;99.90
17252;DHT22;8742;51.716;8.790;2023-12-20T01:49:42;6.30;99.90
17252;DHT22;8742;51.716;8.790;2023-12-20T01:52:09;6.30;99.90
17252;DHT22;8742;51.716;8.790;2023-12-20T01:54:37;6.30;99.90
17252;DHT22;8742;51.716;8.790;2023-12-20T01:57:05;6.40;99.90
17252;DHT22;8742;51.716;8.790;2023-12-20T01:59:33;6.40;99.90
17252;DHT22;8742;51.716;8.790;2023-12-20T02:02:01;6.40;99.90
17252;DHT22;8742;51.716;8.790;2023-12-20T02:04:29;6.50;99.90
17252;DHT22;8742;51.716;8.790;2023-12-20T02:07:07;6.50;99.90
17252;DHT22;8742;51.716;8.790;2023-12-20T02:09:38;6.50;99.90
17252;DHT22;8742;51.716;8.790;2023-12-20T02:12:09;6.50;99.90
17252;DHT22;8742;51.716;8.790;2023-12-20T02:14:36;6.50;99.90
17252;DHT22;8742;51.716;8.790;2023-12-20T02:17:03;6.50;99.90
17252;DHT22;8742;51.716;8.790;2023-12-20T02:19:30;6.50;99.90
17252;DHT22;8742;51.716;8.790;2023-12-20T02:22:09;6.60;99.90
17252;DHT22;8742;51.716;8.790;2023-12-20T02:24:36;6.50;99.90
17252;DHT22;8742;51.716;8.790;2023-12-20T02:27:03;6.60;99.90
17252;DHT22;8742;51.716;8.790;2023-12-20T02:29:32;6.50;99.90
17252;DHT22;8742;51.716;8.790;2023-12-20T02:31:59;6.60;99.90
17252;DHT22;8742;51.716;8.790;2023-12-20T02:34:26;6.60;99.90
17252;DHT22;8742;51.716;8.790;2023-12-20T02:36:53;6.50;99.90
17252;DHT22;8742;51.716;8.790;2023-12-20T02:39:22;6.50;99.90
17252;DHT22;8742;51.716;8.790;2023-12-20T02:41:49;6.50;99.90
17252;DHT22;8742;51.716;8.790;2023-12-20T02:44:16;6.60;99.90
17252;DHT22;8742;51.716;8.790;2023-12-20T02:46:42;6.60;99.90
17252;DHT22;8742;51.716;8.790;2023-12-20T02:49:09;6.50;99.90
17252;DHT22;8742;51.716;8.790;2023-12-20T02:51:36;6.50;99.90
17252;DHT22;8742;51.716;8.790;2023-12-20T02:54:04;6.40;99.90
17252;DHT22;8742;51.716;8.790;2023-12-20T02:56:33;6.40;99.90
17252;DHT22;8742;51.716;8.790;2023-12-20T02:59:00;6.30;99.90
17252;DHT22;8742;51.716;8.790;2023-12-20T03:01:28;6.30;99.90
17252;DHT22;8742;51.716;8.790;2023-12-20T03:03:55;6.20;99.90
17252;DHT22;8742;51.716;8.790;2023-12-20T03:06:21;6.10;99.90
17252;DHT22;8742;51.716;8.790;2023-12-20T03:08:48;6.10;99.90
17252;DHT22;8742;51.716;8.790;2023-12-20T03:11:15;6.10;99.90
17252;DHT22;8742;51.716;8.790;2023-12-20T03:13:43;6.10;99.90
17252;DHT22;8742;51.716;8.790;2023-12-20T03:16:10;6.10;99.90
17252;DHT22;8742;51.716;8.790;2023-12-20T03:18:37;6.10;99.90
17252;DHT22;8742;51.716;8.790;2023-12-20T03:21:06;6.20;99.90
17252;DHT22;8742;51.716;8.790;2023-12-20T03:23:33;6.20;99.90
17252;DHT22;8742;51.716;8.790;2023-12-20T03:26:00;6.20;99.90
17252;DHT22;8742;51.716;8.790;2023-12-20T03:28:28;6.20;99.90
17252;DHT22;8742;51.716;8.790;2023-12-20T03:30:56;6.20;99.90
17252;DHT22;8742;51.716;8.790;2023-12-20T03:33:23;6.20;99.90
17252;DHT22;8742;51.716;8.790;2023-12-20T03:35:49;6.20;99.90
17252;DHT22;8742;51.716;8.790;2023-12-20T03:38:16;6.20;99.90
17252;DHT22;8742;51.716;8.790;2023-12-20T03:40:43;6.20;99.90
17252;DHT22;8742;51.716;8.790;2023-12-20T03:43:10;6.30;99.90
17252;DHT22;8742;51.716;8.790;2023-12-20T03:45:37;6.30;99.90
17252;DHT22;8742;51.716;8.790;2023-12-20T03:48:06;6.30;99.90
17252;DHT22;8742;51.716;8.790;2023-12-20T03:50:33;6.30;99.90
17252;DHT22;8742;51.716;8.790;2023-12-20T03:53:00;6.30;99.90
17252;DHT22;8742;51.716;8.790;2023-12-20T03:55:30;6.30;99.90
17252;DHT22;8742;51.716;8.790;2023-12-20T03:57:57;6.30;99.90
17252;DHT22;8742;51.716;8.790;2023-12-20T04:00:24;6.30;99.90
17252;DHT22;8742;51.716;8.790;2023-12-20T04:02:50;6.30;99.90
17252;DHT22;8742;51.716;8.790;2023-12-20T04:05:19;6.30;99.90
17252;DHT22;8742;51.716;8.790;2023-12-20T04:07:46;6.30;99.90
17252;DHT22;8742;51.716;8.790;2023-12-20T04:10:13;6.30;99.90
17252;DHT22;8742;51.716;8.790;2023-12-20T04:12:40;6.30;99.90
17252;DHT22;8742;51.716;8.790;2023-12-20T04:15:07;6.30;99.90
17252;DHT22;8742;51.716;8.790;2023-12-20T04:17:37;6.30;99.90
17252;DHT22;8742;51.716;8.790;2023-12-20T04:20:05;6.30;99.90
17252;DHT22;8742;51.716;8.790;2023-12-20T04:22:34;6.20;99.90
17252;DHT22;8742;51.716;8.790;2023-12-20T04:25:01;6.20;99.90
17252;DHT22;8742;51.716;8.790;2023-12-20T04:27:28;6.20;99.90
17252;DHT22;8742;51.716;8.790;2023-12-20T04:29:55;6.20;99.90
17252;DHT22;8742;51.716;8.790;2023-12-20T04:32:22;6.20;99.90
17252;DHT22;8742;51.716;8.790;2023-12-20T04:34:49;6.20;99.90
17252;DHT22;8742;51.716;8.790;2023-12-20T04:37:16;6.10;99.90
17252;DHT22;8742;51.716;8.790;2023-12-20T04:39:44;6.10;99.90
17252;DHT22;8742;51.716;8.790;2023-12-20T04:42:11;6.10;99.90
17252;DHT22;8742;51.716;8.790;2023-12-20T04:44:38;6.10;99.90
17252;DHT22;8742;51.716;8.790;2023-12-20T04:47:05;6.00;99.90
17252;DHT22;8742;51.716;8.790;2023-12-20T04:49:32;6.00;99.90
17252;DHT22;8742;51.716;8.790;2023-12-20T04:51:59;6.10;99.90
17252;DHT22;8742;51.716;8.790;2023-12-20T04:54:26;6.10;99.90
17252;DHT22;8742;51.716;8.790;2023-12-20T04:56:54;6.10;99.90
17252;DHT22;8742;51.716;8.790;2023-12-20T04:59:21;6.10;99.90
17252;DHT22;8742;51.716;8.790;2023-12-20T05:01:48;6.10;99.90
17252;DHT22;8742;51.716;8.790;2023-12-20T05:04:15;6.10;99.90
17252;DHT22;8742;51.716;8.790;2023-12-20T05:06:42;6.00;99.90
17252;DHT22;8742;51.716;8.790;2023-12-20T05:09:09;6.00;99.90
17252;DHT22;8742;51.716;8.790;2023-12-20T05:11:36;6.00;99.90
17252;DHT22;8742;51.716;8.790;2023-12-20T05:14:04;6.00;99.90
17252;DHT22;8742;51.716;8.790;2023-12-20T05:16:31;6.00;99.90
17252;DHT22;8742;51.716;8.790;2023-12-20T05:18:58;6.00;99.90
17252;DHT22;8742;51.716;8.790;2023-12-20T05:21:26;6.00;99.90
17252;DHT22;8742;51.716;8.790;2023-12-20T05:23:53;6.10;99.90
17252;DHT22;8742;51.716;8.790;2023-12-20T05:26:20;6.10;99.90
17252;DHT22;8742;51.716;8.790;2023-12-20T05:28:47;6.10;99.90
17252;DHT22;8742;51.716;8.790;2023-12-20T05:31:15;6.10;99.90
17252;DHT22;8742;51.716;8.790;2023-12-20T05:33:41;6.10;99.90
17252;DHT22;8742;51.716;8.790;2023-12-20T05:36:08;6.10;99.90
17252;DHT22;8742;51.716;8.790;2023-12-20T05:38:36;6.10;99.90
17252;DHT22;8742;51.716;8.790;2023-12-20T05:41:04;6.10;99.90
17252;DHT22;8742;51.716;8.790;2023-12-20T05:43:31;6.20;99.90
17252;DHT22;8742;51.716;8.790;2023-12-20T05:46:06;6.20;99.90
17252;DHT22;8742;51.716;8.790;2023-12-20T05:48:35;6.20;99.90
17252;DHT22;8742;51.716;8.790;2023-12-20T05:51:02;6.20;99.90
17252;DHT22;8742;51.716;8.790;2023-12-20T05:53:29;6.20;99.90
17252;DHT22;8742;51.716;8.790;2023-12-20T05:55:55;6.20;99.90
17252;DHT22;8742;51.716;8.790;2023-12-20T05:58:22;6.20;99.90
17252;DHT22;8742;51.716;8.790;2023-12-20T06:00:49;6.20;99.90
17252;DHT22;8742;51.716;8.790;2023-12-20T06:03:16;6.20;99.90
17252;DHT22;8742;51.716;8.790;2023-12-20T06:05:44;6.20;99.90
17252;DHT22;8742;51.716;8.790;2023-12-20T06:08:11;6.20;99.90
17252;DHT22;8742;51.716;8.790;2023-12-20T06:10:38;6.10;99.90
17252;DHT22;8742;51.716;8.790;2023-12-20T06:13:05;6.10;99.90
17252;DHT22;8742;51.716;8.790;2023-12-20T06:15:33;6.10;99.90
17252;DHT22;8742;51.716;8.790;2023-12-20T06:18:01;6.00;99.90
17252;DHT22;8742;51.716;8.790;2023-12-20T06:20:27;6.00;99.90
17252;DHT22;8742;51.716;8.790;2023-12-20T06:22:56;6.00;99.90
17252;DHT22;8742;51.716;8.790;2023-12-20T06:25:38;6.00;99.90
17252;DHT22;8742;51.716;8.790;2023-12-20T06:28:06;6.00;99.90
17252;DHT22;8742;51.716;8.790;2023-12-20T06:30:33;6.00;99.90
17252;DHT22;8742;51.716;8.790;2023-12-20T06:33:00;6.00;99.90
17252;DHT22;8742;51.716;8.790;2023-12-20T06:35:27;6.00;99.90
17252;DHT22;8742;51.716;8.790;2023-12-20T06:37:55;6.00;99.90
17252;DHT22;8742;51.716;8.790;2023-12-20T06:40:22;6.00;99.90
17252;DHT22;8742;51.716;8.790;2023-12-20T06:42:49;6.00;99.90
17252;DHT22;8742;51.716;8.790;2023-12-20T06:45:16;6.00;99.90
17252;DHT22;8742;51.716;8.790;2023-12-20T06:47:43;6.00;99.90
17252;DHT22;8742;51.716;8.790;2023-12-20T06:50:09;6.00;99.90
17252;DHT22;8742;51.716;8.790;2023-12-20T06:52:36;6.00;99.90
17252;DHT22;8742;51.716;8.790;2023-12-20T06:55:05;6.00;99.90
17252;DHT22;8742;51.716;8.790;2023-12-20T06:57:32;6.00;99.90
17252;DHT22;8742;51.716;8.790;2023-12-20T06:59:59;6.10;99.90
17252;DHT22;8742;51.716;8.790;2023-12-20T07:02:26;6.00;99.90
17252;DHT22;8742;51.716;8.790;2023-12-20T07:04:55;6.00;99.90
17252;DHT22;8742;51.716;8.790;2023-12-20T07:07:22;6.00;99.90
17252;DHT22;8742;51.716;8.790;2023-12-20T07:09:50;6.00;99.90
17252;DHT22;8742;51.716;8.790;2023-12-20T07:12:18;6.00;99.90
17252;DHT22;8742;51.716;8.790;2023-12-20T07:14:45;6.00;99.90
17252;DHT22;8742;51.716;8.790;2023-12-20T07:17:11;6.00;99.90
17252;DHT22;8742;51.716;8.790;2023-12-20T07:19:40;6.00;99.90
17252;DHT22;8742;51.716;8.790;2023-12-20T07:22:07;6.00;99.90
17252;DHT22;8742;51.716;8.790;2023-12-20T07:24:34;6.00;99.90
17252;DHT22;8742;51.716;8.790;2023-12-20T07:27:01;6.00;99.90
17252;DHT22;8742;51.716;8.790;2023-12-20T07:29:30;6.00;99.90
17252;DHT22;8742;51.716;8.790;2023-12-20T07:31:56;6.00;99.90
17252;DHT22;8742;51.716;8.790;2023-12-20T07:34:23;6.00;99.90
17252;DHT22;8742;51.716;8.790;2023-12-20T07:36:50;6.00;99.90
17252;DHT22;8742;51.716;8.790;2023-12-20T07:39:17;6.00;99.90
17252;DHT22;8742;51.716;8.790;2023-12-20T07:41:44;6.00;99.90
17252;DHT22;8742;51.716;8.790;2023-12-20T07:44:11;6.00;99.90
17252;DHT22;8742;51.716;8.790;2023-12-20T07:46:39;6.00;99.90
17252;DHT22;8742;51.716;8.790;2023-12-20T07:49:06;6.00;99.90
17252;DHT22;8742;51.716;8.790;2023-12-20T07:51:34;6.00;99.90
17252;DHT22;8742;51.716;8.790;2023-12-20T07:54:00;6.00;99.90
17252;DHT22;8742;51.716;8.790;2023-12-20T07:56:29;6.00;99.90
17252;DHT22;8742;51.716;8.790;2023-12-20T07:58:56;6.00;99.90
17252;DHT22;8742;51.716;8.790;2023-12-20T08:01:22;6.00;99.90
17252;DHT22;8742;51.716;8.790;2023-12-20T08:03:51;6.10;99.90
17252;DHT22;8742;51.716;8.790;2023-12-20T08:06:17;6.00;99.90
17252;DHT22;8742;51.716;8.790;2023-12-20T08:08:44;6.00;99.90
17252;DHT22;8742;51.716;8.790;2023-12-20T08:11:11;6.10;99.90
17252;DHT22;8742;51.716;8.790;2023-12-20T08:13:38;6.10;99.90
17252;DHT22;8742;51.716;8.790;2023-12-20T08:16:05;6.10;99.90
17252;DHT22;8742;51.716;8.790;2023-12-20T08:18:32;6.10;99.90
17252;DHT22;8742;51.716;8.790;2023-12-20T08:21:01;6.10;99.90
17252;DHT22;8742;51.716;8.790;2023-12-20T08:23:28;6.10;99.90
17252;DHT22;8742;51.716;8.790;2023-12-20T08:25:55;6.10;99.90
17252;DHT22;8742;51.716;8.790;2023-12-20T08:28:22;6.20;99.90
17252;DHT22;8742;51.716;8.790;2023-12-20T08:30:49;6.20;99.90
17252;DHT22;8742;51.716;8.790;2023-12-20T08:33:19;6.20;99.90
17252;DHT22;8742;51.716;8.790;2023-12-20T08:35:46;6.20;99.90
17252;DHT22;8742;51.716;8.790;2023-12-20T08:38:14;6.20;99.90
17252;DHT22;8742;51.716;8.790;2023-12-20T08:40:42;6.20;99.90
17252;DHT22;8742;51.716;8.790;2023-12-20T08:43:10;6.20;99.90
17252;DHT22;8742;51.716;8.790;2023-12-20T08:45:38;6.20;99.90
17252;DHT22;8742;51.716;8.790;2023-12-20T08:48:06;6.20;99.90
17252;DHT22;8742;51.716;8.790;2023-12-20T08:50:33;6.20;99.90
17252;DHT22;8742;51.716;8.790;2023-12-20T08:53:00;6.20;99.90
17252;DHT22;8742;51.716;8.790;2023-12-20T08:55:28;6.20;99.90
17252;DHT22;8742;51.716;8.790;2023-12-20T08:57:56;6.20;99.90
17252;DHT22;8742;51.716;8.790;2023-12-20T09:00:23;6.20;99.90
17252;DHT22;8742;51.716;8.790;2023-12-20T09:02:53;6.20;99.90
17252;DHT22;8742;51.716;8.790;2023-12-20T09:05:19;6.20;99.90
17252;DHT22;8742;51.716;8.790;2023-12-20T09:07:46;6.20;99.90
17252;DHT22;8742;51.716;8.790;2023-12-20T09:10:13;6.30;99.90
17252;DHT22;8742;51.716;8.790;2023-12-20T09:12:41;6.30;99.90
17252;DHT22;8742;51.716;8.790;2023-12-20T09:15:08;6.30;99.90
17252;DHT22;8742;51.716;8.790;2023-12-20T09:17:35;6.30;99.90
17252;DHT22;8742;51.716;8.790;2023-12-20T09:20:02;6.30;99.90
17252;DHT22;8742;51.716;8.790;2023-12-20T09:22:31;6.40;99.90
17252;DHT22;8742;51.716;8.790;2023-12-20T09:24:58;6.40;99.90
17252;DHT22;8742;51.716;8.790;2023-12-20T09:27:25;6.40;99.90
17252;DHT22;8742;51.716;8.790;2023-12-20T09:29:54;6.50;99.90
17252;DHT22;8742;51.716;8.790;2023-12-20T09:32:20;6.50;99.90
17252;DHT22;8742;51.716;8.790;2023-12-20T09:34:47;6.50;99.90
17252;DHT22;8742;51.716;8.790;2023-12-20T09:37:14;6.50;99.90
17252;DHT22;8742;51.716;8.790;2023-12-20T09:39:41;6.60;99.90
17252;DHT22;8742;51.716;8.790;2023-12-20T09:42:08;6.60;99.90
17252;DHT22;8742;51.716;8.790;2023-12-20T09:44:37;6.60;99.90
17252;DHT22;8742;51.716;8.790;2023-12-20T09:47:09;6.60;99.90
17252;DHT22;8742;51.716;8.790;2023-12-20T09:49:36;6.60;99.90
17252;DHT22;8742;51.716;8.790;2023-12-20T09:52:05;6.60;99.90
17252;DHT22;8742;51.716;8.790;2023-12-20T09:54:34;6.60;99.90
17252;DHT22;8742;51.716;8.790;2023-12-20T09:57:01;6.60;99.90
17252;DHT22;8742;51.716;8.790;2023-12-20T09:59:28;6.60;99.90
17252;DHT22;8742;51.716;8.790;2023-12-20T10:01:55;6.60;99.90
17252;DHT22;8742;51.716;8.790;2023-12-20T10:04:24;6.70;99.90
17252;DHT22;8742;51.716;8.790;2023-12-20T10:06:51;6.80;99.90
17252;DHT22;8742;51.716;8.790;2023-12-20T10:09:18;6.80;99.90
17252;DHT22;8742;51.716;8.790;2023-12-20T10:11:48;6.90;99.90
17252;DHT22;8742;51.716;8.790;2023-12-20T10:14:16;6.90;99.90
17252;DHT22;8742;51.716;8.790;2023-12-20T10:16:44;6.80;99.90
17252;DHT22;8742;51.716;8.790;2023-12-20T10:19:11;6.80;99.90
17252;DHT22;8742;51.716;8.790;2023-12-20T10:21:39;6.80;99.90
17252;DHT22;8742;51.716;8.790;2023-12-20T10:24:07;6.90;99.90
17252;DHT22;8742;51.716;8.790;2023-12-20T10:26:34;6.90;99.90
17252;DHT22;8742;51.716;8.790;2023-12-20T10:29:01;6.90;99.90
17252;DHT22;8742;51.716;8.790;2023-12-20T10:31:31;6.90;99.90
17252;DHT22;8742;51.716;8.790;2023-12-20T10:33:58;6.90;99.90
17252;DHT22;8742;51.716;8.790;2023-12-20T10:36:26;6.90;99.90
17252;DHT22;8742;51.716;8.790;2023-12-20T10:38:55;6.80;99.90
17252;DHT22;8742;51.716;8.790;2023-12-20T10:41:25;6.80;99.90
17252;DHT22;8742;51.716;8.790;2023-12-20T10:43:55;6.80;99.90
17252;DHT22;8742;51.716;8.790;2023-12-20T10:46:22;6.80;99.90
17252;DHT22;8742;51.716;8.790;2023-12-20T10:48:52;6.80;99.90
17252;DHT22;8742;51.716;8.790;2023-12-20T10:51:20;6.80;99.90
17252;DHT22;8742;51.716;8.790;2023-12-20T10:53:48;6.80;99.90
17252;DHT22;8742;51.716;8.790;2023-12-20T10:56:17;6.80;99.90
17252;DHT22;8742;51.716;8.790;2023-12-20T10:58:45;6.80;99.90
17252;DHT22;8742;51.716;8.790;2023-12-20T11:01:13;6.90;99.90
17252;DHT22;8742;51.716;8.790;2023-12-20T11:03:44;6.90;99.90
17252;DHT22;8742;51.716;8.790;2023-12-20T11:09:12;7.10;99.90
17252;DHT22;8742;51.716;8.790;2023-12-20T11:11:52;7.20;99.90
17252;DHT22;8742;51.716;8.790;2023-12-20T11:14:27;7.20;99.90
17252;DHT22;8742;51.716;8.790;2023-12-20T11:17:06;7.20;99.90
17252;DHT22;8742;51.716;8.790;2023-12-20T11:19:35;7.20;99.90
17252;DHT22;8742;51.716;8.790;2023-12-20T11:22:03;7.20;99.90
17252;DHT22;8742;51.716;8.790;2023-12-20T11:24:31;7.10;99.90
17252;DHT22;8742;51.716;8.790;2023-12-20T11:27:01;7.10;99.90
17252;DHT22;8742;51.716;8.790;2023-12-20T11:29:32;7.10;99.90
17252;DHT22;8742;51.716;8.790;2023-12-20T11:32:01;7.00;99.90
17252;DHT22;8742;51.716;8.790;2023-12-20T11:34:30;7.00;99.90
17252;DHT22;8742;51.716;8.790;2023-12-20T11:36:59;6.90;99.90
17252;DHT22;8742;51.716;8.790;2023-12-20T11:39:26;6.90;99.90
17252;DHT22;8742;51.716;8.790;2023-12-20T11:41:55;6.90;99.90
17252;DHT22;8742;51.716;8.790;2023-12-20T11:44:25;6.90;99.90
17252;DHT22;8742;51.716;8.790;2023-12-20T11:46:52;6.80;99.90
17252;DHT22;8742;51.716;8.790;2023-12-20T11:49:23;6.80;99.90
17252;DHT22;8742;51.716;8.790;2023-12-20T11:51:50;6.90;99.90
17252;DHT22;8742;51.716;8.790;2023-12-20T11:54:17;6.90;99.90
17252;DHT22;8742;51.716;8.790;2023-12-20T11:56:45;6.90;99.90
17252;DHT22;8742;51.716;8.790;2023-12-20T11:59:12;6.90;99.90
17252;DHT22;8742;51.716;8.790;2023-12-20T12:01:48;6.90;99.90
17252;DHT22;8742;51.716;8.790;2023-12-20T12:04:15;6.90;99.90
17252;DHT22;8742;51.716;8.790;2023-12-20T12:06:43;7.00;99.90
17252;DHT22;8742;51.716;8.790;2023-12-20T12:09:09;7.00;99.90
17252;DHT22;8742;51.716;8.790;2023-12-20T12:11:36;7.00;99.90
17252;DHT22;8742;51.716;8.790;2023-12-20T12:14:03;6.90;99.90
17252;DHT22;8742;51.716;8.790;2023-12-20T12:16:30;6.90;99.90
17252;DHT22;8742;51.716;8.790;2023-12-20T12:18:59;6.90;99.90
17252;DHT22;8742;51.716;8.790;2023-12-20T12:21:26;6.80;99.90
17252;DHT22;8742;51.716;8.790;2023-12-20T12:23:53;6.80;99.90
17252;DHT22;8742;51.716;8.790;2023-12-20T12:26:19;6.90;99.90
17252;DHT22;8742;51.716;8.790;2023-12-20T12:28:46;7.00;99.90
17252;DHT22;8742;51.716;8.790;2023-12-20T12:31:14;7.10;99.90
17252;DHT22;8742;51.716;8.790;2023-12-20T12:33:42;7.20;99.90
17252;DHT22;8742;51.716;8.790;2023-12-20T12:36:10;7.30;99.90
17252;DHT22;8742;51.716;8.790;2023-12-20T12:38:41;7.40;99.90
17252;DHT22;8742;51.716;8.790;2023-12-20T12:41:08;7.40;99.90
17252;DHT22;8742;51.716;8.790;2023-12-20T12:43:36;7.40;99.90
17252;DHT22;8742;51.716;8.790;2023-12-20T12:46:03;7.50;99.90
17252;DHT22;8742;51.716;8.790;2023-12-20T12:48:30;7.60;99.90
17252;DHT22;8742;51.716;8.790;2023-12-20T12:50:57;7.60;99.90
17252;DHT22;8742;51.716;8.790;2023-12-20T12:53:26;7.60;99.90
17252;DHT22;8742;51.716;8.790;2023-12-20T12:55:53;7.60;99.90
17252;DHT22;8742;51.716;8.790;2023-12-20T12:58:20;7.60;99.90
17252;DHT22;8742;51.716;8.790;2023-12-20T13:00:50;7.60;99.90
17252;DHT22;8742;51.716;8.790;2023-12-20T13:03:18;7.60;99.90
17252;DHT22;8742;51.716;8.790;2023-12-20T13:05:44;7.70;99.90
17252;DHT22;8742;51.716;8.790;2023-12-20T13:08:12;7.70;99.90
17252;DHT22;8742;51.716;8.790;2023-12-20T13:10:41;7.70;99.90
17252;DHT22;8742;51.716;8.790;2023-12-20T13:13:07;7.70;99.90
17252;DHT22;8742;51.716;8.790;2023-12-20T13:15:34;7.70;99.90
17252;DHT22;8742;51.716;8.790;2023-12-20T13:18:01;7.70;99.90
17252;DHT22;8742;51.716;8.790;2023-12-20T13:20:30;7.70;99.90
17252;DHT22;8742;51.716;8.790;2023-12-20T13:22:57;7.70;99.90
17252;DHT22;8742;51.716;8.790;2023-12-20T13:25:24;7.70;99.90
17252;DHT22;8742;51.716;8.790;2023-12-20T13:27:52;7.70;99.90
17252;DHT22;8742;51.716;8.790;2023-12-20T13:30:20;7.60;99.90
17252;DHT22;8742;51.716;8.790;2023-12-20T13:32:47;7.60;99.90
17252;DHT22;8742;51.716;8.790;2023-12-20T13:35:14;7.60;99.90
17252;DHT22;8742;51.716;8.790;2023-12-20T13:37:41;7.50;99.90
17252;DHT22;8742;51.716;8.790;2023-12-20T13:40:10;7.50;99.90
17252;DHT22;8742;51.716;8.790;2023-12-20T13:42:37;7.50;99.90
17252;DHT22;8742;51.716;8.790;2023-12-20T13:45:07;7.50;99.90
17252;DHT22;8742;51.716;8.790;2023-12-20T13:47:35;7.50;99.90
17252;DHT22;8742;51.716;8.790;2023-12-20T13:50:02;7.50;99.90
17252;DHT22;8742;51.716;8.790;2023-12-20T13:52:29;7.50;99.90
17252;DHT22;8742;51.716;8.790;2023-12-20T13:54:56;7.50;99.90
17252;DHT22;8742;51.716;8.790;2023-12-20T13:57:23;7.40;99.90
17252;DHT22;8742;51.716;8.790;2023-12-20T13:59:49;7.40;99.90
17252;DHT22;8742;51.716;8.790;2023-12-20T14:02:18;7.40;99.90
17252;DHT22;8742;51.716;8.790;2023-12-20T14:04:44;7.40;99.90
17252;DHT22;8742;51.716;8.790;2023-12-20T14:07:11;7.40;99.90
17252;DHT22;8742;51.716;8.790;2023-12-20T14:09:38;7.40;99.90
17252;DHT22;8742;51.716;8.790;2023-12-20T14:12:05;7.30;99.90
17252;DHT22;8742;51.716;8.790;2023-12-20T14:14:34;7.30;99.90
17252;DHT22;8742;51.716;8.790;2023-12-20T14:17:01;7.40;99.90
17252;DHT22;8742;51.716;8.790;2023-12-20T14:19:29;7.30;99.90
17252;DHT22;8742;51.716;8.790;2023-12-20T14:21:56;7.30;99.90
17252;DHT22;8742;51.716;8.790;2023-12-20T14:24:26;7.40;99.90
17252;DHT22;8742;51.716;8.790;2023-12-20T14:26:53;7.30;99.90
17252;DHT22;8742;51.716;8.790;2023-12-20T14:29:20;7.30;99.90
17252;DHT22;8742;51.716;8.790;2023-12-20T14:31:47;7.40;99.90
17252;DHT22;8742;51.716;8.790;2023-12-20T14:34:15;7.40;99.90
17252;DHT22;8742;51.716;8.790;2023-12-20T14:36:43;7.30;99.90
17252;DHT22;8742;51.716;8.790;2023-12-20T14:39:10;7.40;99.90
17252;DHT22;8742;51.716;8.790;2023-12-20T14:41:38;7.30;99.90
17252;DHT22;8742;51.716;8.790;2023-12-20T14:44:05;7.30;99.90
17252;DHT22;8742;51.716;8.790;2023-12-20T14:46:32;7.20;99.90
17252;DHT22;8742;51.716;8.790;2023-12-20T14:48:59;7.20;99.90
17252;DHT22;8742;51.716;8.790;2023-12-20T14:51:27;7.20;99.90
17252;DHT22;8742;51.716;8.790;2023-12-20T14:53:55;7.20;99.90
17252;DHT22;8742;51.716;8.790;2023-12-20T14:56:23;7.20;99.90
17252;DHT22;8742;51.716;8.790;2023-12-20T14:58:51;7.20;99.90
17252;DHT22;8742;51.716;8.790;2023-12-20T15:01:18;7.20;99.90
17252;DHT22;8742;51.716;8.790;2023-12-20T15:03:46;7.20;99.90
17252;DHT22;8742;51.716;8.790;2023-12-20T15:06:13;7.20;99.90
17252;DHT22;8742;51.716;8.790;2023-12-20T15:08:40;7.20;99.90
17252;DHT22;8742;51.716;8.790;2023-12-20T15:11:08;7.20;99.90
17252;DHT22;8742;51.716;8.790;2023-12-20T15:13:35;7.20;99.90
17252;DHT22;8742;51.716;8.790;2023-12-20T15:16:02;7.30;99.90
17252;DHT22;8742;51.716;8.790;2023-12-20T15:18:30;7.30;99.90
17252;DHT22;8742;51.716;8.790;2023-12-20T15:20:57;7.30;99.90
17252;DHT22;8742;51.716;8.790;2023-12-20T15:23:25;7.30;99.90
17252;DHT22;8742;51.716;8.790;2023-12-20T15:25:54;7.30;99.90
17252;DHT22;8742;51.716;8.790;2023-12-20T15:28:22;7.20;99.90
17252;DHT22;8742;51.716;8.790;2023-12-20T15:30:49;7.30;99.90
17252;DHT22;8742;51.716;8.790;2023-12-20T15:33:16;7.30;99.90
17252;DHT22;8742;51.716;8.790;2023-12-20T15:35:42;7.30;99.90
17252;DHT22;8742;51.716;8.790;2023-12-20T15:38:09;7.30;99.90
17252;DHT22;8742;51.716;8.790;2023-12-20T15:40:36;7.30;99.90
17252;DHT22;8742;51.716;8.790;2023-12-20T15:43:03;7.30;99.90
17252;DHT22;8742;51.716;8.790;2023-12-20T15:45:35;7.30;99.90
17252;DHT22;8742;51.716;8.790;2023-12-20T15:48:01;7.30;99.90
17252;DHT22;8742;51.716;8.790;2023-12-20T15:50:29;7.20;99.90
17252;DHT22;8742;51.716;8.790;2023-12-20T15:52:57;7.20;99.90
17252;DHT22;8742;51.716;8.790;2023-12-20T15:55:23;7.20;99.90
17252;DHT22;8742;51.716;8.790;2023-12-20T15:57:50;7.20;99.90
17252;DHT22;8742;51.716;8.790;2023-12-20T16:00:18;7.20;99.90
17252;DHT22;8742;51.716;8.790;2023-12-20T16:02:46;7.20;99.90
17252;DHT22;8742;51.716;8.790;2023-12-20T16:05:13;7.20;99.90
17252;DHT22;8742;51.716;8.790;2023-12-20T16:07:40;7.20;99.90